Nimble — WDH5792 — position and weather

sailwx.info

Track history (hours):
 
Tides and Currents Weather Stations Pressure Air Temp Water Temp Dewpoint Dewpoint Depression Visibility Wind Speed Wind Dir Waves Ship Positions

Nimble

Owner: Mohler, George, Mercer Island, WA. More information available from US FCC via Universal Licensing System and Coast Guard Vessel Documentation Center.

Last reported at 2018-May-29 00:48 UTC. Time now 2018-Jun-21 06:52 UTC.
Position N 47°41' W 122°25'.
Warning: this ship's position is 23 days out of date.

Date/timePositionNaut miles runAvg speedWind from/ knotsBaromVisibWave heightAir tempDewpointWater temp
2018-May-29 00:48N 47°41' W 122°25'0 0.0
2018-May-29 00:30N 47°41' W 122°25'3 6.4
2018-May-29 00:00N 47°44' W 122°26'4 7.5
2018-May-28 23:30N 47°47' W 122°28'4 7.3
2018-May-28 23:00N 47°51' W 122°29'69 2.7
2018-May-27 21:53N 48°23' W 124°00'611.6
2018-May-27 21:22N 48°26' W 124°08'410.1
2018-May-27 21:00N 48°26' W 124°13'6 9.5
2018-May-27 20:24N 48°27' W 124°22'4 8.8
2018-May-27 20:00N 48°26' W 124°27'4 7.7
2018-May-27 19:30N 48°28' W 124°32'4 7.3
2018-May-27 19:00N 48°30' W 124°38'4 7.1
2018-May-27 18:29N 48°30' W 124°43'4 6.8
2018-May-27 17:55N 48°31' W 124°49'2 4.3
2018-May-27 17:30N 48°31' W 124°51'1 2.0
2018-May-27 17:00N 48°31' W 124°53'1 1.0
2018-May-27 16:28N 48°31' W 124°54'0 0.5
2018-May-27 15:40N 48°32' W 124°54'1 0.8
2018-May-27 14:43N 48°32' W 124°54'0 0.2
2018-May-27 14:27N 48°32' W 124°54'0 0.4
2018-May-27 14:00N 48°32' W 124°54'2 0.3
2018-May-27 06:19N 48°34' W 124°57'7 3.3
2018-May-27 04:19N 48°28' W 124°53'2 4.5
2018-May-27 03:59N 48°28' W 124°51'3 5.8
2018-May-27 03:29N 48°30' W 124°47'3 5.2
2018-May-27 02:57N 48°29' W 124°43'3 6.4
2018-May-27 02:30N 48°27' W 124°40'4 7.1
2018-May-27 02:00N 48°25' W 124°35'4 7.6
2018-May-27 01:30N 48°22' W 124°32'3 6.7
2018-May-27 01:00N 48°23' W 124°26'  
2018-May-20 16:27N 47°52' W 122°30'12 0.8
2018-May-20 00:59N 47°41' W 122°24'0 0.0
2018-May-19 22:29N 47°41' W 122°24'0 0.0
2018-May-19 19:53N 47°41' W 122°24'0 0.0
2018-May-19 17:41N 47°41' W 122°24'0 0.0
2018-May-19 17:23N 47°41' W 122°24'0 0.0
2018-May-19 16:55N 47°41' W 122°24'0 0.0
2018-May-19 04:49N 47°41' W 122°24'0 0.0
2018-May-19 04:19N 47°41' W 122°24'0 0.0
2018-May-19 03:58N 47°41' W 122°24'0 0.0
2018-May-19 03:28N 47°41' W 122°24'0 0.0
2018-May-19 02:58N 47°41' W 122°24'1 1.6
2018-May-19 02:25N 47°40' W 122°24'  
Track history (hours):
 
Tides and Currents Weather Stations Pressure Air Temp Water Temp Dewpoint Dewpoint Depression Visibility Wind Speed Wind Dir Waves Ship Positions

Nimble

Owner: Mohler, George, Mercer Island, WA. More information available from US FCC via Universal Licensing System and Coast Guard Vessel Documentation Center.

Last reported at 2018-May-29 00:48 UTC. Time now 2018-Jun-21 06:52 UTC.
Position N 47°41' W 122°25'.
Warning: this ship's position is 23 days out of date.

Date/timePositionNaut miles runAvg speedWind from/ knotsBaromVisibWave heightAir tempDewpointWater temp
2018-May-29 00:48N 47°41' W 122°25'0 0.0
2018-May-29 00:30N 47°41' W 122°25'3 6.4
2018-May-29 00:00N 47°44' W 122°26'4 7.5
2018-May-28 23:30N 47°47' W 122°28'4 7.3
2018-May-28 23:00N 47°51' W 122°29'69 2.7
2018-May-27 21:53N 48°23' W 124°00'611.6
2018-May-27 21:22N 48°26' W 124°08'410.1
2018-May-27 21:00N 48°26' W 124°13'6 9.5
2018-May-27 20:24N 48°27' W 124°22'4 8.8
2018-May-27 20:00N 48°26' W 124°27'4 7.7
2018-May-27 19:30N 48°28' W 124°32'4 7.3
2018-May-27 19:00N 48°30' W 124°38'4 7.1
2018-May-27 18:29N 48°30' W 124°43'4 6.8
2018-May-27 17:55N 48°31' W 124°49'2 4.3
2018-May-27 17:30N 48°31' W 124°51'1 2.0
2018-May-27 17:00N 48°31' W 124°53'1 1.0
2018-May-27 16:28N 48°31' W 124°54'0 0.5
2018-May-27 15:40N 48°32' W 124°54'1 0.8
2018-May-27 14:43N 48°32' W 124°54'0 0.2
2018-May-27 14:27N 48°32' W 124°54'0 0.4
2018-May-27 14:00N 48°32' W 124°54'2 0.3
2018-May-27 06:19N 48°34' W 124°57'7 3.3
2018-May-27 04:19N 48°28' W 124°53'2 4.5
2018-May-27 03:59N 48°28' W 124°51'3 5.8
2018-May-27 03:29N 48°30' W 124°47'3 5.2
2018-May-27 02:57N 48°29' W 124°43'3 6.4
2018-May-27 02:30N 48°27' W 124°40'4 7.1
2018-May-27 02:00N 48°25' W 124°35'4 7.6
2018-May-27 01:30N 48°22' W 124°32'3 6.7
2018-May-27 01:00N 48°23' W 124°26'  
2018-May-20 16:27N 47°52' W 122°30'12 0.8
2018-May-20 00:59N 47°41' W 122°24'0 0.0
2018-May-19 22:29N 47°41' W 122°24'0 0.0
2018-May-19 19:53N 47°41' W 122°24'0 0.0
2018-May-19 17:41N 47°41' W 122°24'0 0.0
2018-May-19 17:23N 47°41' W 122°24'0 0.0
2018-May-19 16:55N 47°41' W 122°24'0 0.0
2018-May-19 04:49N 47°41' W 122°24'0 0.0
2018-May-19 04:19N 47°41' W 122°24'0 0.0
2018-May-19 03:58N 47°41' W 122°24'0 0.0
2018-May-19 03:28N 47°41' W 122°24'0 0.0
2018-May-19 02:58N 47°41' W 122°24'1 1.6
2018-May-19 02:25N 47°40' W 122°24'  

Dump ship's entire track history